Aviation Digital Data Service (ADDS)

Output produced by METARs form (1325 UTC 20 July 2019)
found at http://www.aviationweather.gov/metar/data/
 
METAR text: KSHV 201256Z 18006KT 6SM BR BKN006 BKN012 26/25 A3003 RMK AO2 SLP163 T02610250
Conditions at: KSHV (SHREVEPORT , LA, US) observed 1256 UTC 20 July 2019
Temperature: 26.1°C (79°F)
Dewpoint: 25.0°C (77°F) [RH = 94%]
Pressure (altimeter): 30.03 inches Hg (1017.0 mb)
[Sea-level pressure: 1016.3 mb]
Winds: from the S (180 degrees) at 7 MPH (6 knots; 3.1 m/s)
Visibility: 6 miles (10 km)
Ceiling: 600 feet AGL
Clouds: broken clouds at 600 feet AGL
broken clouds at 1200 feet AGL
Weather: BR  (mist)

METAR text: KSHV 201227Z 18006KT 7SM BKN007 BKN012 26/24 A3002 RMK AO2 T02560244
Conditions at: KSHV (SHREVEPORT , LA, US) observed 1227 UTC 20 July 2019
Temperature: 25.6°C (78°F)
Dewpoint: 24.4°C (76°F) [RH = 93%]
Pressure (altimeter): 30.02 inches Hg (1016.7 mb)
Winds: from the S (180 degrees) at 7 MPH (6 knots; 3.1 m/s)
Visibility: 7 miles (11 km)
Ceiling: 700 feet AGL
Clouds: broken clouds at 700 feet AGL
broken clouds at 1200 feet AGL
Weather: no significant weather observed at this time

Forecast for: KSHV (SHREVEPORT , LA, US)
Text: KSHV 201159Z 2012/2112 17005KT P6SM BKN007 BKN300
Forecast period: 1200 to 1500 UTC 20 July 2019
Forecast type: FROM: standard forecast or significant change
Winds: from the S (170 degrees) at 6 MPH (5 knots; 2.6 m/s)
Visibility: 6 or more miles 10+ km)
Ceiling: 700 feet AGL
Clouds: broken clouds at 700 feet AGL
broken clouds at 30000 feet AGL
Weather: no significant weather forecast for this period
Text: TEMPO 2012/2015 SCT010 BKN015
Forecast period: 1200 to 1500 UTC 20 July 2019
Forecast type: TEMPORARY: The following changes expected for less than half the time period
Visibility: missing
Ceiling: 1500 feet AGL
Clouds: scattered clouds at 1000 feet AGL
broken clouds at 1500 feet AGL
Weather: no significant weather forecast for this period
Text: FM201500 21009KT P6SM SCT035
Forecast period: 1500 UTC 20 July 2019 to 0000 UTC 21 July 2019
Forecast type: FROM: standard forecast or significant change
Winds: from the SSW (210 degrees) at 10 MPH (9 knots; 4.6 m/s)
Visibility: 6 or more miles 10+ km)
Ceiling: at least 12,000 feet AGL
Clouds: scattered clouds at 3500 feet AGL
Weather: no significant weather forecast for this period
Text: FM210000 18006KT P6SM SCT250
Forecast period: 0000 to 1200 UTC 21 July 2019
Forecast type: FROM: standard forecast or significant change
Winds: from the S (180 degrees) at 7 MPH (6 knots; 3.1 m/s)
Visibility: 6 or more miles 10+ km)
Ceiling: at least 12,000 feet AGL
Clouds: scattered clouds at 25000 feet AGL
Weather: no significant weather forecast for this period